首页
METAR-TAF:

METAR-TAF

机场 :

雪城汉考克国际机场

锡拉丘兹, 紐約州, 美国

纬度: 43-06-33N, 经度: 076-06-12W, 海拔: 128米

当前天气观测

该预报发布于26分钟前的16:54 UTC
静风
温度 22°C
湿度 50%
气压 1017 hPa
能見度: 16.1公里
少量云层高于3500英尺
少量云层高于20000英尺
散云层高于25000英尺

METAR: KSYR 171654Z 00000KT 10SM FEW035 FEW200 SCT250 22/11 A3002 RMK AO2 SLP161 T02170111

时间: 13:20 (17:20 UTC)

预报

该预报发布于5小时和41分钟前的11:39 UTC
预报有效从17日的 12点(UTC)到 18日的 12点(UTC)
风速3节,风向多变
能見度: 10公里
散云层高于11000英尺

TAF: KSYR 171139Z 1712/1812 VRB03KT P6SM SCT110

超过4000个机场的气象观测和天气预报(METAR&TAF报告)。

可查询的气象台以黄色和红色小点在地图上表示。

将鼠标移到小点上方,可查看气象台名称。

然后点击查看天气观测和预报。

如需切换地图:点击带黑十字的绿色按钮放大地图;点击带横线的绿色按钮缩小地图;或者点击绿色箭头查看邻近地区的地图。


METAR-TAF: